createdAt,value
2023-03-02T00:01:57.327Z,72.49
2023-03-02T00:04:42.691Z,72.42
2023-03-02T00:07:14.628Z,72.66
2023-03-02T00:09:43.578Z,72.60
2023-03-02T00:12:11.923Z,72.63
2023-03-02T00:14:38.769Z,72.95
2023-03-02T00:17:08.308Z,72.98
2023-03-02T00:19:36.695Z,73.27
2023-03-02T00:22:04.688Z,73.47
2023-03-02T00:24:31.885Z,73.42
2023-03-02T00:26:58.936Z,73.73
2023-03-02T00:29:25.983Z,74.12
2023-03-02T00:31:53.080Z,74.15
2023-03-02T00:34:30.260Z,74.04
2023-03-02T00:36:57.328Z,74.26
2023-03-02T00:39:24.924Z,74.36
2023-03-02T00:41:52.042Z,74.29
2023-03-02T00:44:19.408Z,74.13
2023-03-02T00:46:46.515Z,74.12
2023-03-02T00:49:13.890Z,74.17
2023-03-02T00:51:41.165Z,73.86
2023-03-02T00:54:08.242Z,73.84
2023-03-02T00:56:35.328Z,73.84
2023-03-02T00:59:07.321Z,73.81
2023-03-02T01:01:34.446Z,73.88
2023-03-02T01:04:01.486Z,73.76
2023-03-02T01:06:28.795Z,73.76
2023-03-02T01:08:55.828Z,74.01
2023-03-02T01:11:23.018Z,74.40
2023-03-02T01:13:51.028Z,74.53
2023-03-02T01:16:18.787Z,74.52
2023-03-02T01:18:46.135Z,74.56
2023-03-02T01:21:15.858Z,74.59
2023-03-02T01:23:43.102Z,74.79
2023-03-02T01:26:10.528Z,74.79
2023-03-02T01:28:37.818Z,74.96
2023-03-02T01:31:05.624Z,75.03
2023-03-02T01:33:33.492Z,75.11
2023-03-02T01:36:00.992Z,75.06
2023-03-02T01:38:28.757Z,75.06
2023-03-02T01:40:55.736Z,75.24
2023-03-02T01:43:22.941Z,75.38
2023-03-02T01:46:05.127Z,75.68
2023-03-02T01:48:45.418Z,75.98
2023-03-02T01:51:16.306Z,75.95
2023-03-02T01:53:47.508Z,76.01
2023-03-02T01:56:21.652Z,76.00
2023-03-02T01:58:53.409Z,76.20
2023-03-02T02:01:22.023Z,76.16
2023-03-02T02:03:50.981Z,75.77
2023-03-02T02:06:43.262Z,75.72
2023-03-02T02:09:14.781Z,75.74
2023-03-02T02:11:43.976Z,75.61
2023-03-02T02:14:10.986Z,75.59
2023-03-02T02:16:39.530Z,75.62
2023-03-02T02:19:31.583Z,75.79
2023-03-02T02:21:58.838Z,75.73
2023-03-02T02:24:34.131Z,75.57
2023-03-02T02:27:01.969Z,75.78
2023-03-02T02:29:35.570Z,76.09
2023-03-02T02:32:11.698Z,76.02
2023-03-02T02:34:40.945Z,76.06
2023-03-02T02:37:15.013Z,75.77
2023-03-02T02:39:46.706Z,76.23
2023-03-02T02:42:36.610Z,76.38
2023-03-02T02:45:08.072Z,76.55
2023-03-02T02:47:35.436Z,76.68
2023-03-02T02:50:02.848Z,76.60
2023-03-02T02:52:30.289Z,76.73
2023-03-02T02:54:59.109Z,76.89
2023-03-02T02:57:29.970Z,76.95
2023-03-02T03:00:01.311Z,76.98
2023-03-02T03:02:33.270Z,76.77
2023-03-02T03:05:04.312Z,76.82
2023-03-02T03:07:32.055Z,76.79
2023-03-02T03:10:18.853Z,76.77
2023-03-02T03:12:47.740Z,77.00
2023-03-02T03:15:16.223Z,77.03
2023-03-02T03:17:53.844Z,76.96
2023-03-02T03:20:22.615Z,76.75
2023-03-02T03:22:49.879Z,76.40
2023-03-02T03:25:17.243Z,76.18
2023-03-02T03:27:44.490Z,76.01
2023-03-02T03:30:13.973Z,75.95
2023-03-02T03:32:41.838Z,76.21
2023-03-02T03:35:11.888Z,76.24
2023-03-02T03:37:41.073Z,76.28
2023-03-02T03:40:10.294Z,76.18
2023-03-02T03:42:40.451Z,76.18
2023-03-02T03:45:09.134Z,76.24
2023-03-02T03:47:36.799Z,76.32
2023-03-02T03:50:04.515Z,76.39
2023-03-02T03:52:32.075Z,76.45
2023-03-02T03:55:00.676Z,76.57
2023-03-02T03:57:29.278Z,76.69
2023-03-02T03:59:56.248Z,76.94
2023-03-02T04:02:23.589Z,76.75
2023-03-02T04:04:50.916Z,76.79
2023-03-02T04:07:18.368Z,77.09
2023-03-02T04:09:45.429Z,77.42
2023-03-02T04:12:12.745Z,77.58
2023-03-02T04:14:39.875Z,77.37
2023-03-02T04:17:07.491Z,77.25
2023-03-02T04:19:35.898Z,77.17
2023-03-02T04:22:04.758Z,77.07
2023-03-02T04:24:32.419Z,77.41
2023-03-02T04:26:59.879Z,77.27
2023-03-02T04:29:32.921Z,77.35
2023-03-02T04:32:06.644Z,77.36
2023-03-02T04:34:33.860Z,77.48
2023-03-02T04:37:01.467Z,77.50
2023-03-02T04:39:28.418Z,77.66
2023-03-02T04:41:55.738Z,77.68
2023-03-02T04:44:23.056Z,77.63
2023-03-02T04:46:50.219Z,77.95
2023-03-02T04:49:19.480Z,78.02
2023-03-02T04:51:48.830Z,77.71
2023-03-02T04:54:25.457Z,77.75
2023-03-02T04:56:53.721Z,77.73
2023-03-02T04:59:30.945Z,77.74
2023-03-02T05:02:05.494Z,77.74
2023-03-02T05:04:33.245Z,77.67
2023-03-02T05:07:00.731Z,77.52
2023-03-02T05:09:29.721Z,77.65
2023-03-02T05:11:59.369Z,77.85
2023-03-02T05:14:27.396Z,77.98
2023-03-02T05:16:54.648Z,78.12
2023-03-02T05:19:21.802Z,78.05
2023-03-02T05:21:49.169Z,78.24
2023-03-02T05:24:16.185Z,78.19
2023-03-02T05:26:43.133Z,78.03
2023-03-02T05:29:09.985Z,78.14
2023-03-02T05:31:43.359Z,78.34
2023-03-02T05:34:15.542Z,78.54
2023-03-02T05:36:43.822Z,78.55
2023-03-02T05:39:11.148Z,78.50
2023-03-02T05:41:38.730Z,78.77
2023-03-02T05:44:09.648Z,78.41
2023-03-02T05:46:37.204Z,78.48
2023-03-02T05:49:04.566Z,78.37
2023-03-02T05:51:31.530Z,78.42
2023-03-02T05:53:58.556Z,79.26
2023-03-02T05:56:25.732Z,79.45
2023-03-02T05:58:52.526Z,79.36
2023-03-02T06:01:19.884Z,79.30
2023-03-02T06:03:47.369Z,79.32
2023-03-02T06:06:14.540Z,79.09
2023-03-02T06:08:42.593Z,79.16
2023-03-02T06:11:10.213Z,79.13
2023-03-02T06:13:37.775Z,79.46
2023-03-02T06:16:05.457Z,79.63
2023-03-02T06:18:32.900Z,79.61
2023-03-02T06:21:00.541Z,79.58
2023-03-02T06:23:27.806Z,79.86
2023-03-02T06:25:55.158Z,80.28
2023-03-02T06:28:22.298Z,80.36
2023-03-02T06:30:50.056Z,80.08
2023-03-02T06:33:18.368Z,80.15
2023-03-02T06:35:46.506Z,80.21
2023-03-02T06:38:13.853Z,80.26
2023-03-02T06:40:41.161Z,80.14
2023-03-02T06:43:08.148Z,80.07
2023-03-02T06:45:35.642Z,80.00
2023-03-02T06:48:02.785Z,79.79
2023-03-02T06:50:29.726Z,79.86
2023-03-02T06:52:57.321Z,79.97
2023-03-02T06:55:24.841Z,79.60
2023-03-02T06:57:52.444Z,79.53
2023-03-02T07:00:26.423Z,79.41
2023-03-02T07:02:54.050Z,79.42
2023-03-02T07:05:22.930Z,79.49
2023-03-02T07:07:50.279Z,79.13
2023-03-02T07:10:17.566Z,78.85
2023-03-02T07:12:45.238Z,78.80
2023-03-02T07:15:14.572Z,78.68
2023-03-02T07:17:43.805Z,78.62
2023-03-02T07:20:13.011Z,78.44
2023-03-02T07:22:40.804Z,78.43
2023-03-02T07:25:20.896Z,77.76
2023-03-02T07:27:50.401Z,77.57
2023-03-02T07:30:31.105Z,77.41
2023-03-02T07:32:59.858Z,77.03
2023-03-02T07:35:35.319Z,76.71
2023-03-02T07:38:03.494Z,76.26
2023-03-02T07:40:37.421Z,75.83
2023-03-02T07:43:07.063Z,74.82
2023-03-02T07:45:34.534Z,74.95
2023-03-02T07:48:03.089Z,73.47
2023-03-02T07:50:32.192Z,72.83
2023-03-02T07:53:00.752Z,73.04
2023-03-02T07:55:28.685Z,72.59
2023-03-02T07:57:55.687Z,72.83
2023-03-02T08:00:23.007Z,71.63
2023-03-02T08:02:50.113Z,69.63
2023-03-02T08:05:17.434Z,69.80
2023-03-02T08:07:47.330Z,68.90
2023-03-02T08:10:14.393Z,68.47
2023-03-02T08:12:43.247Z,68.07
2023-03-02T08:15:11.417Z,67.06
2023-03-02T08:17:38.705Z,66.20
2023-03-02T08:20:07.004Z,65.63
2023-03-02T08:22:34.366Z,64.70
2023-03-02T08:25:01.588Z,64.85
2023-03-02T08:27:28.379Z,62.69
2023-03-02T08:29:55.811Z,60.12
2023-03-02T08:32:22.787Z,60.32
2023-03-02T08:34:52.211Z,60.03
2023-03-02T08:37:20.249Z,60.53
2023-03-02T08:39:47.486Z,59.45
2023-03-02T08:42:14.846Z,58.12
2023-03-02T08:44:41.814Z,57.09
2023-03-02T08:47:09.003Z,53.27
2023-03-02T08:49:38.217Z,53.74
2023-03-02T08:52:05.733Z,53.68
2023-03-02T08:54:34.945Z,52.80
2023-03-02T08:57:03.008Z,51.16
2023-03-02T08:59:30.285Z,50.57
2023-03-02T09:01:59.722Z,50.49
2023-03-02T09:04:26.762Z,48.37
2023-03-02T09:06:53.803Z,46.22
2023-03-02T09:09:20.840Z,47.99
2023-03-02T09:11:48.239Z,48.80
2023-03-02T09:14:15.644Z,46.63
2023-03-02T09:16:42.760Z,42.52
2023-03-02T09:19:12.532Z,40.97
2023-03-02T09:21:40.125Z,42.46
2023-03-02T09:24:07.329Z,42.55
2023-03-02T09:26:35.484Z,40.27
2023-03-02T09:29:02.469Z,40.86
2023-03-02T09:31:30.502Z,39.80
2023-03-02T09:33:57.791Z,38.05
2023-03-02T09:36:26.944Z,37.51
2023-03-02T09:38:54.200Z,37.36
2023-03-02T09:41:21.093Z,37.33
2023-03-02T09:43:50.983Z,36.00
2023-03-02T09:46:34.416Z,35.68
2023-03-02T09:49:39.322Z,35.32
2023-03-02T09:52:35.084Z,34.83
2023-03-02T09:55:24.242Z,34.14
2023-03-02T09:57:52.212Z,34.43
2023-03-02T10:00:28.537Z,34.68
2023-03-02T10:03:16.187Z,34.00
2023-03-02T10:05:48.785Z,32.74
2023-03-02T10:08:21.160Z,32.62
2023-03-02T10:10:59.731Z,33.20
2023-03-02T10:14:08.697Z,32.23
2023-03-02T10:16:52.844Z,32.49
2023-03-02T10:19:32.756Z,32.87
2023-03-02T10:22:08.920Z,32.97
2023-03-02T10:24:47.332Z,33.18
2023-03-02T10:27:27.120Z,32.80
2023-03-02T10:30:06.758Z,33.24
2023-03-02T10:32:42.140Z,33.42
2023-03-02T10:35:21.256Z,33.00
2023-03-02T10:37:49.428Z,33.14
2023-03-02T10:40:51.113Z,32.82
2023-03-02T10:43:31.152Z,31.98
2023-03-02T10:46:03.668Z,31.81
2023-03-02T10:48:32.783Z,31.23
2023-03-02T10:51:01.514Z,31.73
2023-03-02T10:53:31.132Z,31.24
2023-03-02T10:56:00.676Z,31.58
2023-03-02T10:58:33.009Z,31.80
2023-03-02T11:01:06.077Z,31.69
2023-03-02T11:03:34.622Z,32.34
2023-03-02T11:06:18.119Z,32.23
2023-03-02T11:08:45.031Z,31.92
2023-03-02T11:11:23.205Z,31.77
2023-03-02T11:13:51.221Z,31.69
2023-03-02T11:16:18.527Z,31.63
2023-03-02T11:19:17.720Z,32.02
2023-03-02T11:21:54.044Z,31.62
2023-03-02T11:24:37.322Z,31.08
2023-03-02T11:27:23.037Z,31.02
2023-03-02T11:30:17.320Z,31.28
2023-03-02T11:33:02.065Z,31.07
2023-03-02T11:35:37.400Z,31.02
2023-03-02T11:38:19.732Z,31.17
2023-03-02T11:40:55.662Z,30.98
2023-03-02T11:43:23.152Z,30.76
2023-03-02T11:46:10.863Z,30.99
2023-03-02T11:48:45.331Z,30.42
2023-03-02T11:51:18.284Z,30.16
2023-03-02T11:53:58.248Z,30.13
2023-03-02T11:56:27.176Z,30.22
2023-03-02T11:58:58.281Z,30.39
2023-03-02T12:01:29.405Z,30.66
2023-03-02T12:04:08.397Z,30.69
2023-03-02T12:06:39.082Z,30.67
2023-03-02T12:09:37.444Z,30.67
2023-03-02T12:12:32.109Z,30.08
2023-03-02T12:14:59.144Z,30.16
2023-03-02T12:17:25.983Z,29.99
2023-03-02T12:20:27.054Z,30.17
2023-03-02T12:22:55.243Z,30.10
2023-03-02T12:25:22.150Z,30.32
2023-03-02T12:27:52.052Z,30.11
2023-03-02T12:30:24.023Z,29.98
2023-03-02T12:33:18.818Z,29.92
2023-03-02T12:35:47.749Z,30.22
2023-03-02T12:38:35.558Z,29.37
2023-03-02T12:41:35.829Z,29.15
2023-03-02T12:44:34.948Z,29.54
2023-03-02T12:47:03.784Z,29.12
2023-03-02T12:50:20.958Z,28.77
2023-03-02T12:52:58.855Z,29.17
2023-03-02T12:55:26.205Z,28.74
2023-03-02T12:57:58.687Z,28.75
2023-03-02T13:00:30.448Z,29.29
2023-03-02T13:02:58.890Z,29.48
2023-03-02T13:05:32.073Z,28.75
2023-03-02T13:08:02.003Z,29.36
2023-03-02T13:10:37.502Z,29.52
2023-03-02T13:13:19.519Z,30.00
2023-03-02T13:15:58.204Z,30.25
2023-03-02T13:18:28.466Z,30.35
2023-03-02T13:20:56.231Z,30.11
2023-03-02T13:23:23.733Z,30.31
2023-03-02T13:25:57.516Z,29.99
2023-03-02T13:28:40.450Z,30.16
2023-03-02T13:31:20.741Z,30.35
2023-03-02T13:33:50.595Z,30.92
2023-03-02T13:36:31.283Z,31.18
2023-03-02T13:39:00.881Z,31.25
2023-03-02T13:41:36.932Z,31.23
2023-03-02T13:44:31.639Z,31.90
2023-03-02T13:46:59.832Z,32.38
2023-03-02T13:49:35.920Z,31.97
2023-03-02T13:52:22.687Z,32.85
2023-03-02T13:54:50.410Z,33.28
2023-03-02T13:57:25.478Z,33.91
2023-03-02T13:59:52.795Z,34.12
2023-03-02T14:02:29.021Z,34.53
2023-03-02T14:04:57.012Z,35.18
2023-03-02T14:07:24.278Z,35.09
2023-03-02T14:09:51.483Z,35.10
2023-03-02T14:12:25.644Z,35.20
2023-03-02T14:14:56.193Z,35.55
2023-03-02T14:17:25.562Z,35.72
2023-03-02T14:19:53.562Z,36.12
2023-03-02T14:22:22.137Z,36.22
2023-03-02T14:24:49.320Z,36.12
2023-03-02T14:27:18.297Z,36.48
2023-03-02T14:29:46.953Z,36.44
2023-03-02T14:32:15.706Z,36.71
2023-03-02T14:34:45.473Z,36.89
2023-03-02T14:37:22.889Z,37.16
2023-03-02T14:39:55.520Z,37.19
2023-03-02T14:42:24.607Z,37.52
2023-03-02T14:44:53.342Z,37.60
2023-03-02T14:47:22.557Z,37.88
2023-03-02T14:49:51.347Z,37.90
2023-03-02T14:52:28.273Z,38.04
2023-03-02T14:55:01.479Z,37.94
2023-03-02T14:57:34.667Z,38.15
2023-03-02T15:00:04.236Z,38.15
2023-03-02T15:02:33.992Z,38.45
2023-03-02T15:05:01.297Z,38.73
2023-03-02T15:07:29.240Z,39.02
2023-03-02T15:09:58.682Z,38.85
2023-03-02T15:12:28.241Z,39.10
2023-03-02T15:14:56.613Z,39.31
2023-03-02T15:17:25.399Z,39.62
2023-03-02T15:19:53.478Z,39.70
2023-03-02T15:22:22.063Z,40.01
2023-03-02T15:24:51.688Z,39.96
2023-03-02T15:27:20.982Z,40.04
2023-03-02T15:29:48.556Z,40.18
2023-03-02T15:32:16.687Z,40.44
2023-03-02T15:34:44.395Z,40.26
2023-03-02T15:37:12.845Z,40.36
2023-03-02T15:39:40.589Z,40.70
2023-03-02T15:42:07.738Z,40.86
2023-03-02T15:44:34.947Z,41.19
2023-03-02T15:47:02.082Z,41.42
2023-03-02T15:49:29.685Z,41.51
2023-03-02T15:51:58.729Z,41.71
2023-03-02T15:54:27.746Z,41.69
2023-03-02T15:56:54.942Z,42.30
2023-03-02T15:59:24.408Z,42.12
2023-03-02T16:01:51.585Z,42.50
2023-03-02T16:04:18.809Z,42.70
2023-03-02T16:06:58.367Z,42.66
2023-03-02T16:09:52.793Z,43.07
2023-03-02T16:12:23.821Z,43.46
2023-03-02T16:14:50.821Z,43.38
2023-03-02T16:17:21.145Z,43.32
2023-03-02T16:19:48.221Z,43.36
2023-03-02T16:22:15.661Z,43.50
2023-03-02T16:24:43.223Z,43.48
2023-03-02T16:27:10.309Z,43.84
2023-03-02T16:29:38.021Z,44.47
2023-03-02T16:32:06.693Z,44.70
2023-03-02T16:34:33.822Z,44.80
2023-03-02T16:37:00.872Z,45.15
2023-03-02T16:39:28.035Z,45.35
2023-03-02T16:41:54.982Z,45.62
2023-03-02T16:44:23.432Z,46.00
2023-03-02T16:46:50.397Z,46.12
2023-03-02T16:49:17.854Z,46.52
2023-03-02T16:51:44.905Z,46.88
2023-03-02T16:54:16.465Z,47.30
2023-03-02T16:56:45.544Z,47.63
2023-03-02T16:59:12.627Z,47.59
2023-03-02T17:01:39.685Z,48.05
2023-03-02T17:04:07.273Z,48.02
2023-03-02T17:06:34.380Z,48.36
2023-03-02T17:09:01.606Z,48.68
2023-03-02T17:11:28.781Z,48.94
2023-03-02T17:13:56.142Z,49.30
2023-03-02T17:16:23.582Z,49.53
2023-03-02T17:18:50.724Z,49.83
2023-03-02T17:21:18.946Z,49.90
2023-03-02T17:23:59.823Z,50.17
2023-03-02T17:26:26.937Z,50.57
2023-03-02T17:28:54.022Z,50.85
2023-03-02T17:31:30.096Z,50.83
2023-03-02T17:33:57.443Z,51.10
2023-03-02T17:36:24.357Z,51.22
2023-03-02T17:38:52.427Z,51.25
2023-03-02T17:41:19.294Z,51.31
2023-03-02T17:43:46.506Z,51.68
2023-03-02T17:46:15.611Z,52.11
2023-03-02T17:48:43.664Z,52.51
2023-03-02T17:51:12.048Z,52.69
2023-03-02T17:53:39.143Z,53.10
2023-03-02T17:56:06.874Z,53.03
2023-03-02T17:58:44.385Z,53.41
2023-03-02T18:01:13.648Z,53.49
2023-03-02T18:03:41.101Z,53.43
2023-03-02T18:06:08.183Z,54.24
2023-03-02T18:08:35.145Z,54.32
2023-03-02T18:11:02.621Z,54.44
2023-03-02T18:13:29.501Z,54.79
2023-03-02T18:15:56.469Z,54.51
2023-03-02T18:18:24.320Z,55.03
2023-03-02T18:20:51.305Z,56.24
2023-03-02T18:23:19.804Z,55.75
2023-03-02T18:25:46.824Z,55.89
2023-03-02T18:28:14.192Z,56.13
2023-03-02T18:30:41.790Z,56.37
2023-03-02T18:33:09.161Z,56.67
2023-03-02T18:35:45.153Z,56.78
2023-03-02T18:38:12.188Z,56.98
2023-03-02T18:40:39.861Z,57.02
2023-03-02T18:43:06.944Z,57.35
2023-03-02T18:45:34.740Z,57.41
2023-03-02T18:48:02.479Z,57.07
2023-03-02T18:50:30.923Z,57.45
2023-03-02T18:52:58.044Z,57.72
2023-03-02T18:55:25.731Z,58.14
2023-03-02T18:57:55.665Z,58.33
2023-03-02T19:00:27.966Z,58.32
2023-03-02T19:02:56.681Z,58.84
2023-03-02T19:05:27.345Z,58.79
2023-03-02T19:07:55.089Z,58.46
2023-03-02T19:10:22.504Z,58.44
2023-03-02T19:12:49.921Z,58.64
2023-03-02T19:15:17.306Z,58.83
2023-03-02T19:17:44.935Z,59.05
2023-03-02T19:20:15.669Z,59.25
2023-03-02T19:22:43.117Z,59.63
2023-03-02T19:25:11.296Z,59.82
2023-03-02T19:27:38.533Z,60.03
2023-03-02T19:30:07.312Z,60.26
2023-03-02T19:32:34.995Z,60.79
2023-03-02T19:35:02.996Z,61.12
2023-03-02T19:37:30.308Z,61.74
2023-03-02T19:39:57.368Z,62.06
2023-03-02T19:42:24.317Z,62.22
2023-03-02T19:44:51.386Z,62.36
2023-03-02T19:47:18.382Z,62.45
2023-03-02T19:49:45.475Z,62.47
2023-03-02T19:52:12.599Z,62.61
2023-03-02T19:54:39.620Z,62.71
2023-03-02T19:57:08.304Z,62.87
2023-03-02T19:59:37.097Z,62.92
2023-03-02T20:02:04.193Z,62.86
2023-03-02T20:04:31.076Z,62.97
2023-03-02T20:06:58.425Z,63.06
2023-03-02T20:09:25.675Z,63.19
2023-03-02T20:11:52.925Z,63.20
2023-03-02T20:14:32.889Z,62.90
2023-03-02T20:17:02.205Z,63.14
2023-03-02T20:19:29.348Z,63.38
2023-03-02T20:21:56.420Z,63.59
2023-03-02T20:24:23.621Z,63.73
2023-03-02T20:26:50.864Z,63.77
2023-03-02T20:29:18.995Z,64.22
2023-03-02T20:31:45.960Z,64.26
2023-03-02T20:34:16.197Z,64.51
2023-03-02T20:36:44.102Z,64.41
2023-03-02T20:39:16.354Z,64.40
2023-03-02T20:41:44.514Z,64.65
2023-03-02T20:44:14.568Z,64.39
2023-03-02T20:46:46.420Z,64.78
2023-03-02T20:49:16.110Z,65.22
2023-03-02T20:51:49.474Z,65.05
2023-03-02T20:54:17.568Z,64.97
2023-03-02T20:56:45.142Z,64.95
2023-03-02T20:59:14.206Z,65.16
2023-03-02T21:01:42.608Z,65.10
2023-03-02T21:04:10.636Z,65.44
2023-03-02T21:06:38.110Z,65.46
2023-03-02T21:09:08.258Z,65.58
2023-03-02T21:11:35.968Z,65.70
2023-03-02T21:14:03.463Z,66.01
2023-03-02T21:16:36.258Z,66.09
2023-03-02T21:19:10.017Z,65.98
2023-03-02T21:21:42.046Z,66.14
2023-03-02T21:24:17.078Z,66.36
2023-03-02T21:26:49.212Z,66.94
2023-03-02T21:29:18.050Z,67.54
2023-03-02T21:31:45.461Z,67.20
2023-03-02T21:34:13.642Z,67.44
2023-03-02T21:36:40.984Z,67.38
2023-03-02T21:39:09.620Z,67.48
2023-03-02T21:41:36.995Z,67.51
2023-03-02T21:44:06.057Z,67.80
2023-03-02T21:46:36.110Z,67.88
2023-03-02T21:49:08.155Z,67.84
2023-03-02T21:51:44.048Z,67.71
2023-03-02T21:54:10.959Z,68.01
2023-03-02T21:56:38.079Z,68.33
2023-03-02T21:59:05.636Z,68.30
2023-03-02T22:01:35.889Z,68.62
2023-03-02T22:04:03.005Z,68.70
2023-03-02T22:06:32.814Z,69.00
2023-03-02T22:08:59.856Z,70.20
2023-03-02T22:11:33.621Z,70.85
2023-03-02T22:14:17.750Z,70.48
2023-03-02T22:16:48.203Z,70.27
2023-03-02T22:19:25.874Z,70.38
2023-03-02T22:21:55.377Z,69.91
2023-03-02T22:24:26.816Z,69.43
2023-03-02T22:27:02.352Z,69.82
2023-03-02T22:29:42.662Z,69.86
2023-03-02T22:32:37.064Z,70.08
2023-03-02T22:35:26.060Z,70.04
2023-03-02T22:38:02.425Z,70.20
2023-03-02T22:40:32.281Z,71.08
2023-03-02T22:43:27.398Z,70.93
2023-03-02T22:45:59.788Z,70.94
2023-03-02T22:48:29.560Z,70.87
2023-03-02T22:50:56.678Z,70.93
2023-03-02T22:53:32.763Z,70.86
2023-03-02T22:56:02.205Z,70.75
2023-03-02T22:58:44.752Z,70.68
2023-03-02T23:01:23.630Z,71.01
2023-03-02T23:03:53.952Z,71.36
2023-03-02T23:06:27.916Z,71.56
2023-03-02T23:08:58.759Z,71.79
2023-03-02T23:11:27.064Z,71.88
2023-03-02T23:13:55.564Z,71.96
2023-03-02T23:16:27.902Z,71.71
2023-03-02T23:18:59.717Z,71.58
2023-03-02T23:21:47.902Z,71.76
2023-03-02T23:24:15.470Z,71.97
2023-03-02T23:26:43.424Z,72.29
2023-03-02T23:29:10.287Z,72.05
2023-03-02T23:31:38.475Z,72.13
2023-03-02T23:34:06.272Z,72.02
2023-03-02T23:36:33.240Z,72.32
2023-03-02T23:39:00.507Z,72.58
2023-03-02T23:41:27.655Z,72.84
2023-03-02T23:43:55.075Z,73.16
2023-03-02T23:46:22.072Z,73.19
2023-03-02T23:48:49.470Z,73.33
2023-03-02T23:51:16.588Z,73.38
2023-03-02T23:53:44.982Z,73.03
2023-03-02T23:56:11.955Z,73.13
2023-03-02T23:58:39.384Z,73.40
